Time;durP1;ratioP1;P1;durP2;ratioP2;P2;SDS_P1;SDS_P2;PMS_P1;PMS_P2;Temp;Humidity;BMP_temperature;BMP_pressure;BME280_temperature;BME280_humidity;BME280_pressure;Samples;Min_cycle;Max_cycle;Signal;HPM_P1;HPM_P2
2023/02/22 00:01:00;;;;;;;9.60;6.37;;;;;;;6.80;78.52;100249.11;1476945;88;21334;-75
2023/02/22 00:03:31;;;;;;;11.90;5.80;;;;;;;6.82;78.23;100253.75;1471508;88;21407;-77
2023/02/22 00:06:04;;;;;;;8.87;5.10;;;;;;;6.87;78.29;100254.20;1479642;88;22228;-74
2023/02/22 00:08:34;;;;;;;10.20;5.33;;;;;;;6.90;77.90;100253.94;1475183;88;21341;-76
2023/02/22 00:11:07;;;;;;;11.90;6.40;;;;;;;6.93;77.42;100257.63;1477097;88;21577;-75
2023/02/22 00:13:33;;;;;;;14.90;8.00;;;;;;;6.95;77.10;100262.30;1471672;87;21363;-75
2023/02/22 00:16:00;;;;;;;14.80;7.10;;;;;;;6.96;76.76;100263.50;1473087;88;21496;-75
2023/02/22 00:18:28;;;;;;;7.90;4.50;;;;;;;6.97;76.50;100263.01;1470179;88;21267;-76
2023/02/22 00:20:58;;;;;;;12.77;4.93;;;;;;;6.95;76.31;100258.34;1476256;87;21355;-75
2023/02/22 00:23:28;;;;;;;15.50;8.45;;;;;;;6.93;76.17;100253.69;1475833;88;21441;-75
2023/02/22 00:25:57;;;;;;;18.27;9.10;;;;;;;6.90;76.29;100259.20;1481697;88;21444;-75
2023/02/22 00:28:23;;;;;;;36.50;17.97;;;;;;;6.89;76.30;100261.49;1471342;88;21303;-75
2023/02/22 00:30:51;;;;;;;10.23;4.70;;;;;;;6.88;76.52;100265.09;1477534;88;21546;-74
2023/02/22 00:33:17;;;;;;;12.97;4.33;;;;;;;6.89;76.37;100266.75;1479650;88;22285;-75
2023/02/22 00:35:45;;;;;;;9.40;3.43;;;;;;;6.93;76.14;100272.11;1472961;88;21528;-76
2023/02/22 00:38:14;;;;;;;8.77;3.63;;;;;;;6.94;75.94;100269.84;1472863;88;21393;-76
2023/02/22 00:40:41;;;;;;;14.07;4.97;;;;;;;6.96;75.74;100272.70;1478288;88;21466;-76
2023/02/22 00:43:07;;;;;;;12.37;4.00;;;;;;;6.97;75.32;100277.00;1473863;88;22213;-76
2023/02/22 00:45:35;;;;;;;6.80;3.50;;;;;;;6.99;75.11;100275.53;1479124;88;21266;-76
2023/02/22 00:48:03;;;;;;;8.80;2.87;;;;;;;6.97;75.03;100277.48;1473153;88;21362;-76
2023/02/22 00:50:31;;;;;;;13.30;3.47;;;;;;;6.93;74.83;100277.37;1472450;88;22295;-76
2023/02/22 00:53:00;;;;;;;12.90;4.80;;;;;;;6.95;74.65;100278.08;1480462;88;21476;-76
2023/02/22 00:55:31;;;;;;;14.33;3.27;;;;;;;6.96;74.66;100273.16;1480867;88;21363;-76
2023/02/22 00:57:58;;;;;;;10.68;3.17;;;;;;;6.97;74.69;100273.53;1478704;88;22229;-76
2023/02/22 01:00:28;;;;;;;12.70;4.07;;;;;;;6.96;74.04;100275.80;1479198;88;21340;-76
2023/02/22 01:02:55;;;;;;;12.18;3.50;;;;;;;6.99;73.48;100272.91;1478914;88;21273;-75
2023/02/22 01:05:26;;;;;;;16.30;4.70;;;;;;;7.00;73.17;100273.28;1480082;88;21378;-76
2023/02/22 01:07:55;;;;;;;9.18;3.95;;;;;;;6.98;72.94;100277.34;1481605;88;21421;-75
2023/02/22 01:10:23;;;;;;;15.13;4.00;;;;;;;6.96;72.79;100274.48;1470723;88;21788;-75
2023/02/22 01:12:50;;;;;;;11.37;4.97;;;;;;;6.95;72.79;100274.13;1456463;88;21687;-75
2023/02/22 01:15:23;;;;;;;14.30;4.17;;;;;;;6.92;72.92;100278.34;1398393;88;21335;-75
2023/02/22 01:17:52;;;;;;;12.67;3.83;;;;;;;6.89;72.70;100279.91;1558793;88;21283;-75
2023/02/22 01:20:22;;;;;;;17.27;3.80;;;;;;;6.85;72.76;100274.53;1473618;88;21466;-75
2023/02/22 01:22:52;;;;;;;12.87;3.60;;;;;;;6.82;72.81;100275.65;1476869;88;22361;-76
2023/02/22 01:25:23;;;;;;;12.25;4.55;;;;;;;6.82;72.80;100277.42;1467769;88;22302;-76
2023/02/22 01:27:50;;;;;;;;;;;;;;;6.83;72.74;100278.63;1480617;88;21405;-76
2023/02/22 01:30:21;;;;;;;16.70;4.00;;;;;;;6.82;72.36;100275.65;1485171;88;20267;-76
2023/02/22 01:32:49;;;;;;;12.37;2.60;;;;;;;6.83;72.34;100279.11;1471502;88;21385;-77
2023/02/22 01:35:21;;;;;;;13.57;4.23;;;;;;;6.81;72.20;100273.95;1469489;88;21445;-76
2023/02/22 01:37:47;;;;;;;12.37;3.97;;;;;;;6.81;72.13;100282.34;1466697;88;21337;-76
2023/02/22 01:40:19;;;;;;;13.57;4.43;;;;;;;6.78;72.08;100282.94;1476318;88;21487;-76
2023/02/22 01:42:52;;;;;;;14.73;3.77;;;;;;;6.74;71.84;100282.84;1474133;88;21385;-76
2023/02/22 01:45:37;;;;;;;15.53;3.83;;;;;;;6.73;71.78;100281.19;1460038;88;21407;-76
2023/02/22 01:48:18;;;;;;;18.33;3.90;;;;;;;6.69;71.63;100286.33;1476398;88;21479;-76
2023/02/22 01:50:55;;;;;;;11.20;3.13;;;;;;;6.64;71.74;100295.06;1470425;88;21348;-76
2023/02/22 01:53:36;;;;;;;13.13;3.10;;;;;;;6.60;71.90;100296.78;1473678;88;21502;-76
2023/02/22 01:56:03;;;;;;;15.25;3.87;;;;;;;6.55;71.90;100296.66;1476929;88;21356;-76
2023/02/22 01:58:33;;;;;;;11.23;3.17;;;;;;;6.54;72.02;100301.57;1471626;88;22369;-76
2023/02/22 02:01:00;;;;;;;10.43;3.93;;;;;;;6.54;72.21;100308.14;1479271;88;21481;-76
2023/02/22 02:03:32;;;;;;;12.63;3.77;;;;;;;6.56;72.16;100309.34;1478694;88;21348;-76
2023/02/22 02:06:02;;;;;;;15.73;4.40;;;;;;;6.58;72.24;100307.41;1468391;88;21385;-76
2023/02/22 02:08:48;;;;;;;19.73;5.35;;;;;;;6.61;72.05;100309.79;1475476;88;21360;-76
2023/02/22 02:11:16;;;;;;;12.20;4.03;;;;;;;6.61;71.88;100312.41;1480248;88;22431;-75
2023/02/22 02:13:43;;;;;;;14.73;4.70;;;;;;;6.63;71.63;100299.98;1476501;88;21465;-75
2023/02/22 02:16:09;;;;;;;9.93;4.23;;;;;;;6.66;71.51;100304.16;1472543;88;21529;-75
2023/02/22 02:18:39;;;;;;;13.57;4.57;;;;;;;6.65;71.51;100303.33;1477715;88;21429;-75
2023/02/22 02:21:19;;;;;;;9.43;2.97;;;;;;;6.64;71.16;100302.95;1468052;88;21385;-75
2023/02/22 02:24:27;;;;;;;15.30;3.72;;;;;;;6.62;70.85;100303.59;1478257;88;21421;-74
2023/02/22 02:27:11;;;;;;;12.90;3.00;;;;;;;6.62;70.78;100307.53;1454918;88;21407;-75
2023/02/22 02:30:12;;;;;;;12.90;4.00;;;;;;;6.58;69.85;100310.04;1479231;88;22517;-75
2023/02/22 02:32:57;;;;;;;12.20;3.83;;;;;;;6.62;70.43;100310.61;1475196;88;22501;-75
2023/02/22 02:35:42;;;;;;;14.60;3.60;;;;;;;6.61;69.72;100314.22;1468401;88;21290;-75
2023/02/22 02:38:44;;;;;;;10.43;2.33;;;;;;;6.63;69.91;100310.50;1474624;88;21577;-75
2023/02/22 02:41:22;;;;;;;18.53;3.73;;;;;;;6.63;69.97;100309.67;1475874;88;21370;-74
2023/02/22 02:44:02;;;;;;;15.47;3.17;;;;;;;6.63;69.78;100309.67;1473876;88;21407;-75
2023/02/22 02:46:40;;;;;;;20.23;3.60;;;;;;;6.61;69.88;100311.59;1478301;88;21599;-74
2023/02/22 02:49:11;;;;;;;12.03;3.50;;;;;;;6.55;69.66;100312.44;1474096;88;21334;-75
2023/02/22 02:51:42;;;;;;;26.93;4.60;;;;;;;6.55;69.56;100313.75;1471882;88;21481;-75
2023/02/22 02:54:10;;;;;;;15.27;5.03;;;;;;;6.51;69.54;100322.86;1465660;88;21406;-75
2023/02/22 02:56:37;;;;;;;14.27;3.87;;;;;;;6.49;69.50;100323.94;1468780;88;21355;-74
2023/02/22 02:59:05;;;;;;;21.80;5.33;;;;;;;6.48;69.51;100324.91;1456506;88;22307;-75
2023/02/22 03:01:59;;;;;;;15.90;4.07;;;;;;;6.45;69.54;100323.36;1472162;88;21369;-74
2023/02/22 03:05:11;;;;;;;15.17;3.70;;;;;;;6.41;69.62;100325.86;1474537;88;21348;-74
2023/02/22 03:08:16;;;;;;;12.43;3.90;;;;;;;6.37;69.83;100322.30;1436733;91;21319;-74
2023/02/22 03:10:52;;;;;;;12.10;3.00;;;;;;;6.36;70.01;100324.55;1438574;91;21578;-75
2023/02/22 03:13:39;;;;;;;17.50;5.33;;;;;;;6.32;70.09;100325.28;1447589;91;21416;-74
2023/02/22 03:16:23;;;;;;;16.60;4.07;;;;;;;6.33;69.98;100324.34;1436125;91;21624;-74
2023/02/22 03:19:03;;;;;;;16.17;5.20;;;;;;;6.31;69.79;100332.34;1429625;91;21584;-74
2023/02/22 03:22:00;;;;;;;9.30;3.23;;;;;;;6.29;69.68;100328.99;1434843;90;21588;-75
2023/02/22 03:24:51;;;;;;;18.27;5.03;;;;;;;6.27;69.66;100337.50;1440041;90;21378;-75
2023/02/22 03:27:32;;;;;;;14.57;4.73;;;;;;;6.23;69.54;100340.00;1442585;90;21496;-76
2023/02/22 03:30:04;;;;;;;11.53;3.57;;;;;;;6.19;69.81;100346.47;1444579;90;22657;-76
2023/02/22 03:32:37;;;;;;;14.70;3.60;;;;;;;6.15;69.85;100345.02;1448310;90;21333;-77
2023/02/22 03:35:12;;;;;;;12.23;3.53;;;;;;;6.14;69.73;100345.98;1444704;90;21525;-76
2023/02/22 03:37:46;;;;;;;9.50;3.13;;;;;;;6.12;69.86;100344.44;1429030;88;21356;-76
2023/02/22 03:40:25;;;;;;;14.70;3.43;;;;;;;6.08;69.91;100346.47;1478879;88;21577;-76
2023/02/22 03:43:07;;;;;;;16.37;3.30;;;;;;;6.04;69.81;100344.58;1472578;88;21444;-75
2023/02/22 03:45:35;;;;;;;17.03;4.93;;;;;;;6.02;69.77;100343.02;1482921;88;21274;-76
2023/02/22 03:48:09;;;;;;;11.73;3.67;;;;;;;5.99;69.63;100344.58;1475102;88;22427;-75
2023/02/22 03:50:37;;;;;;;10.67;2.90;;;;;;;5.97;69.83;100345.16;1483414;88;21414;-75
2023/02/22 03:53:04;;;;;;;10.13;3.83;;;;;;;5.96;69.99;100350.07;1476837;88;22317;-76
2023/02/22 03:55:30;;;;;;;11.30;3.13;;;;;;;5.96;70.00;100350.07;1469469;88;21511;-75
2023/02/22 03:58:07;;;;;;;15.13;4.37;;;;;;;5.96;69.94;100352.22;1486461;88;21466;-76
2023/02/22 04:00:34;;;;;;;12.63;4.47;;;;;;;5.95;69.72;100358.41;1478706;88;21473;-75
2023/02/22 04:03:03;;;;;;;12.50;3.77;;;;;;;5.94;69.59;100359.86;1466876;88;21495;-74
2023/02/22 04:05:30;;;;;;;13.67;3.93;;;;;;;5.91;69.46;100352.19;1479885;88;21488;-75
2023/02/22 04:07:57;;;;;;;13.37;4.23;;;;;;;5.88;69.39;100355.87;1473010;88;22287;-75
2023/02/22 04:10:24;;;;;;;9.73;3.10;;;;;;;5.85;69.31;100361.38;1477452;88;21470;-75
2023/02/22 04:12:52;;;;;;;11.37;4.20;;;;;;;5.79;69.39;100367.11;1476093;88;21252;-76
2023/02/22 04:15:22;;;;;;;11.97;2.80;;;;;;;5.70;69.24;100364.70;1470300;88;22146;-76
2023/02/22 04:17:48;;;;;;;18.43;5.50;;;;;;;5.68;69.29;100369.23;1476505;88;22338;-75
2023/02/22 04:20:18;;;;;;;14.30;4.17;;;;;;;5.62;69.46;100369.22;1478444;88;21333;-75
2023/02/22 04:22:44;;;;;;;10.27;2.70;;;;;;;5.59;69.43;100371.25;1481274;88;22243;-75
2023/02/22 04:25:10;;;;;;;16.10;5.00;;;;;;;5.46;69.46;100359.52;1471931;88;21555;-75
2023/02/22 04:27:37;;;;;;;11.17;3.57;;;;;;;5.39;69.34;100361.78;1484065;87;21466;-75
2023/02/22 04:30:03;;;;;;;16.07;5.60;;;;;;;5.39;69.34;100361.78;1454211;88;21525;-75
2023/02/22 04:32:30;;;;;;;18.83;4.50;;;;;;;5.38;69.51;100365.38;1478282;88;21475;-76
2023/02/22 04:34:56;;;;;;;13.53;4.30;;;;;;;5.31;70.13;100363.31;1480689;88;22913;-76
2023/02/22 04:37:22;;;;;;;13.73;2.60;;;;;;;5.31;70.13;100363.31;1477569;88;22265;-76
2023/02/22 04:39:48;;;;;;;11.73;3.50;;;;;;;5.30;70.25;100363.06;1476471;88;22582;-76
2023/02/22 04:42:15;;;;;;;17.57;2.90;;;;;;;5.28;70.14;100363.06;1466398;88;21657;-76
2023/02/22 04:44:41;;;;;;;8.97;3.20;;;;;;;5.31;69.94;100365.94;1477783;88;22121;-80
2023/02/22 04:47:07;;;;;;;13.57;3.30;;;;;;;5.33;69.80;100366.19;1473286;88;21554;-80
2023/02/22 04:49:34;;;;;;;16.33;4.10;;;;;;;5.36;69.72;100369.89;1468748;88;21997;-81
2023/02/22 04:52:00;;;;;;;13.50;3.37;;;;;;;5.37;69.67;100371.55;1470244;88;22185;-83
2023/02/22 04:54:26;;;;;;;12.33;3.43;;;;;;;5.38;69.78;100377.18;1462124;88;22952;-82
2023/02/22 04:56:53;;;;;;;11.87;3.23;;;;;;;5.39;69.79;100374.08;1479950;88;22067;-80
2023/02/22 04:59:19;;;;;;;17.53;4.23;;;;;;;5.38;69.85;100378.95;1484014;88;22886;-81
2023/02/22 05:01:46;;;;;;;16.37;3.90;;;;;;;5.36;69.90;100380.39;1479575;88;21481;-81
2023/02/22 05:04:12;;;;;;;12.60;4.03;;;;;;;5.33;69.90;100381.94;1472914;88;22101;-81
2023/02/22 05:06:38;;;;;;;16.50;4.97;;;;;;;5.33;69.90;100381.94;1477647;88;21878;-81
2023/02/22 05:09:05;;;;;;;14.13;4.43;;;;;;;5.31;70.18;100381.20;1471278;88;22032;-81
2023/02/22 05:11:31;;;;;;;22.23;4.20;;;;;;;5.30;70.44;100382.64;1471591;88;21407;-81
2023/02/22 05:13:57;;;;;;;15.33;4.17;;;;;;;5.27;70.67;100382.87;1475332;88;21606;-81
2023/02/22 05:16:23;;;;;;;14.77;3.23;;;;;;;5.27;70.67;100382.87;1459411;88;21356;-80
2023/02/22 05:18:50;;;;;;;15.10;4.73;;;;;;;5.33;71.03;100381.94;1471833;88;22241;-81
2023/02/22 05:21:16;;;;;;;18.83;4.33;;;;;;;5.33;71.03;100381.94;1476411;88;21385;-81
2023/02/22 05:23:42;;;;;;;15.63;3.77;;;;;;;5.42;70.86;100389.34;1453744;88;21371;-81
2023/02/22 05:26:09;;;;;;;11.57;3.43;;;;;;;5.39;70.75;100389.34;1481238;88;22627;-82
2023/02/22 05:28:35;;;;;;;12.43;4.03;;;;;;;5.41;70.90;100395.32;1468686;88;21363;-81
2023/02/22 05:31:01;;;;;;;14.73;4.73;;;;;;;5.34;70.56;100399.34;1479389;88;21558;-79
2023/02/22 05:33:27;;;;;;;15.60;5.03;;;;;;;5.34;70.56;100399.34;1476139;88;21355;-76
2023/02/22 05:35:54;;;;;;;16.93;5.77;;;;;;;5.28;71.05;100403.73;1476744;88;22969;-80
2023/02/22 05:38:21;;;;;;;16.23;4.97;;;;;;;5.24;70.84;100407.55;1470176;88;21500;-80
2023/02/22 05:40:48;;;;;;;18.13;4.77;;;;;;;5.25;70.78;100412.32;1483083;88;22934;-80
2023/02/22 05:43:15;;;;;;;11.63;4.03;;;;;;;5.21;71.00;100410.41;1463649;88;21340;-80
2023/02/22 05:45:41;;;;;;;14.17;3.90;;;;;;;5.19;71.11;100414.44;1480029;88;21998;-80
2023/02/22 05:48:08;;;;;;;23.20;5.17;;;;;;;5.15;71.68;100416.08;1479713;88;22992;-79
2023/02/22 05:50:34;;;;;;;25.80;6.77;;;;;;;5.10;72.24;100422.17;1471525;88;22042;-80
2023/02/22 05:53:01;;;;;;;18.73;6.97;;;;;;;5.12;72.12;100421.11;1476664;88;22064;-80
2023/02/22 05:55:27;;;;;;;20.40;6.40;;;;;;;5.12;72.12;100421.11;1472352;88;21452;-80
2023/02/22 05:57:53;;;;;;;17.97;6.47;;;;;;;5.16;72.12;100424.34;1471332;88;22949;-80
2023/02/22 06:00:25;;;;;;;18.87;7.33;;;;;;;5.19;71.91;100426.73;1476070;88;22048;-80
2023/02/22 06:03:01;;;;;;;19.27;6.40;;;;;;;5.25;71.77;100425.44;1476197;88;22158;-80
2023/02/22 06:05:28;;;;;;;19.90;7.00;;;;;;;5.28;71.67;100431.77;1472167;88;23111;-80
2023/02/22 06:07:56;;;;;;;22.93;7.13;;;;;;;5.28;71.67;100431.77;1478125;88;21414;-80
2023/02/22 06:10:23;;;;;;;27.60;7.03;;;;;;;5.35;71.59;100438.23;1472262;88;21517;-80
2023/02/22 06:12:52;;;;;;;31.87;8.27;;;;;;;5.38;71.64;100441.48;1481625;88;21399;-80
2023/02/22 06:15:20;;;;;;;29.97;6.47;;;;;;;5.38;71.64;100441.48;1462554;88;21334;-80
2023/02/22 06:17:47;;;;;;;20.23;6.23;;;;;;;5.45;71.49;100454.15;1482752;88;21303;-80
2023/02/22 06:20:18;;;;;;;18.47;6.23;;;;;;;5.48;71.43;100452.61;1476538;88;22316;-80
2023/02/22 06:22:48;;;;;;;20.43;4.47;;;;;;;5.48;71.43;100452.61;1472000;88;21518;-79
2023/02/22 06:25:18;;;;;;;14.77;4.60;;;;;;;5.56;71.29;100462.06;1480217;88;21794;-79
2023/02/22 06:27:44;;;;;;;21.10;6.47;;;;;;;5.58;71.11;100464.94;1469009;88;22162;-79
2023/02/22 06:30:13;;;;;;;20.37;4.93;;;;;;;5.65;71.44;100467.94;1473257;88;21525;-80
2023/02/22 06:32:39;;;;;;;14.50;5.00;;;;;;;5.72;71.87;100469.13;1470880;88;21363;-81
2023/02/22 06:35:07;;;;;;;19.43;5.90;;;;;;;5.80;71.99;100478.59;1479253;88;21370;-79
2023/02/22 06:37:33;;;;;;;12.87;5.03;;;;;;;5.91;71.72;100474.33;1456710;88;22278;-80
2023/02/22 06:39:59;;;;;;;65.23;10.17;;;;;;;5.99;71.44;100478.56;1476137;88;21304;-80
2023/02/22 06:42:26;;;;;;;25.17;6.93;;;;;;;6.06;71.21;100485.01;1484887;88;21606;-79
2023/02/22 06:44:53;;;;;;;47.30;10.57;;;;;;;6.12;70.90;100487.64;1478272;88;21384;-79
2023/02/22 06:47:19;;;;;;;34.33;8.63;;;;;;;6.18;70.60;100491.95;1472053;88;21407;-80
2023/02/22 06:49:54;;;;;;;30.17;8.83;;;;;;;6.21;70.42;100483.82;1479021;88;21362;-79
2023/02/22 06:52:21;;;;;;;59.57;24.57;;;;;;;6.26;70.12;100484.80;1472747;88;21408;-80
2023/02/22 06:54:49;;;;;;;66.83;31.80;;;;;;;6.32;69.71;100496.98;1472823;88;22228;-80
2023/02/22 06:57:16;;;;;;;48.17;20.83;;;;;;;6.36;69.58;100494.97;1467258;88;21334;-80
2023/02/22 06:59:42;;;;;;;38.97;16.93;;;;;;;6.41;69.56;100495.42;1479515;88;21363;-79
2023/02/22 07:02:13;;;;;;;50.83;23.40;;;;;;;6.45;69.28;100498.19;1479141;88;21370;-80
2023/02/22 07:04:40;;;;;;;49.33;23.07;;;;;;;6.49;68.86;100510.61;1478126;88;21348;-81
2023/02/22 07:07:06;;;;;;;52.03;23.33;;;;;;;6.51;68.79;100510.03;1468690;88;21370;-80
2023/02/22 07:09:32;;;;;;;37.30;17.67;;;;;;;6.54;68.73;100507.16;1476345;88;21399;-80
2023/02/22 07:11:58;;;;;;;34.30;15.80;;;;;;;6.57;68.40;100511.34;1478245;88;21514;-80
2023/02/22 07:14:25;;;;;;;26.40;12.33;;;;;;;6.63;68.36;100508.23;1467276;87;22294;-78
2023/02/22 07:16:51;;;;;;;24.87;10.77;;;;;;;6.68;68.09;100510.03;1477324;88;21485;-79
2023/02/22 07:19:17;;;;;;;17.53;7.30;;;;;;;6.71;67.99;100505.36;1477995;88;21333;-80
2023/02/22 07:21:43;;;;;;;18.00;6.60;;;;;;;6.75;67.87;100509.41;1477177;87;22462;-79
2023/02/22 07:24:11;;;;;;;21.03;7.60;;;;;;;6.81;67.44;100513.34;1474855;88;22205;-80
2023/02/22 07:30:38;;;;;;;21.57;9.80;;;;;;;6.95;67.32;100517.03;1471511;88;21591;-80
2023/02/22 07:33:08;;;;;;;28.53;10.57;;;;;;;7.06;66.78;100515.36;1476038;88;21332;-80
2023/02/22 07:35:39;;;;;;;30.33;11.40;;;;;;;7.13;66.83;100516.03;1472778;88;21974;-80
2023/02/22 07:38:07;;;;;;;21.80;9.48;;;;;;;7.23;66.62;100521.42;1469467;88;22442;-79
2023/02/22 07:40:35;;;;;;;16.23;6.57;;;;;;;7.30;65.61;100521.75;1471474;88;21334;-80
2023/02/22 07:43:21;;;;;;;28.40;8.57;;;;;;;7.37;65.54;100524.26;1469467;88;21920;-80
2023/02/22 07:45:50;;;;;;;21.00;7.47;;;;;;;7.46;65.00;100520.88;1478878;88;21408;-80
2023/02/22 07:48:19;;;;;;;30.00;11.30;;;;;;;7.55;64.91;100524.06;1467961;88;21945;-80
2023/02/22 07:50:46;;;;;;;20.73;8.00;;;;;;;7.61;63.96;100524.87;1472067;88;22411;-80
2023/02/22 07:53:17;;;;;;;31.97;13.50;;;;;;;7.68;64.05;100527.38;1473640;88;21532;-80
2023/02/22 07:55:44;;;;;;;27.10;11.53;;;;;;;7.75;63.66;100526.86;1482088;88;22308;-80
2023/02/22 07:58:14;;;;;;;23.80;7.97;;;;;;;7.84;63.49;100528.73;1473721;88;21598;-80
2023/02/22 08:00:42;;;;;;;16.93;6.73;;;;;;;7.91;62.67;100523.28;1483962;88;21377;-80
2023/02/22 08:03:13;;;;;;;21.87;7.10;;;;;;;7.95;59.83;100526.03;1471369;88;21326;-80
2023/02/22 08:05:47;;;;;;;15.18;4.97;;;;;;;8.10;61.63;100532.65;1466861;88;22501;-81
2023/02/22 08:08:14;;;;;;;19.50;5.37;;;;;;;8.16;58.16;100527.83;1469899;88;21318;-81
2023/02/22 08:10:41;;;;;;;10.17;4.00;;;;;;;8.09;58.71;100530.16;1477532;88;21326;-80
2023/02/22 08:13:07;;;;;;;19.60;5.57;;;;;;;7.95;57.02;100533.11;1477110;88;22206;-80
2023/02/22 08:15:37;;;;;;;20.93;5.27;;;;;;;8.10;59.55;100530.02;1468764;88;21435;-81
2023/02/22 08:18:10;;;;;;;12.33;5.63;;;;;;;8.20;59.54;100534.50;1472868;88;21305;-80
2023/02/22 08:20:38;;;;;;;12.87;4.53;;;;;;;8.21;58.21;100528.28;1475384;88;22620;-79
2023/02/22 08:23:06;;;;;;;15.60;5.40;;;;;;;8.29;57.59;100532.43;1468872;88;21355;-79
2023/02/22 08:25:33;;;;;;;9.10;4.80;;;;;;;8.35;58.17;100529.27;1456335;88;21547;-79
2023/02/22 08:28:09;;;;;;;12.37;4.53;;;;;;;8.33;56.75;100532.51;1446967;88;22493;-79
2023/02/22 08:30:38;;;;;;;11.07;3.93;;;;;;;8.43;57.07;100536.08;1475443;88;21414;-80
2023/02/22 08:33:04;;;;;;;14.30;3.67;;;;;;;8.45;55.58;100538.57;1395271;88;21531;-82
2023/02/22 08:35:32;;;;;;;17.40;3.60;;;;;;;8.47;55.42;100536.64;1404167;87;21282;-83
2023/02/22 08:45:04;;;;;;;14.43;4.30;;;;;;;8.56;54.32;100541.95;1537413;88;21275;-82
2023/02/22 08:47:30;;;;;;;20.13;3.67;;;;;;;8.51;52.78;100548.59;1397318;88;21378;-79
2023/02/22 08:49:57;;;;;;;9.07;3.47;;;;;;;8.46;52.01;100545.50;1534356;88;21327;-80
2023/02/22 08:52:23;;;;;;;30.57;15.07;;;;;;;8.41;51.68;100547.72;1404280;88;21274;-82
2023/02/22 08:54:49;;;;;;;28.07;8.07;;;;;;;8.48;54.55;100551.50;1398576;88;21254;-79
2023/02/22 08:57:15;;;;;;;75.57;36.17;;;;;;;8.58;54.30;100548.44;1398049;88;21231;-79
2023/02/22 08:59:41;;;;;;;55.30;24.50;;;;;;;8.68;54.60;100551.10;1398830;88;21238;-80
2023/02/22 09:02:19;;;;;;;23.03;7.93;;;;;;;8.75;53.63;100556.22;1372560;91;21419;-81
2023/02/22 09:04:46;;;;;;;29.87;12.10;;;;;;;8.79;52.29;100554.48;1559099;88;22127;-79
2023/02/22 09:07:14;;;;;;;15.20;5.43;;;;;;;8.90;53.64;100557.52;1380892;89;21370;-80
2023/02/22 09:09:42;;;;;;;10.93;3.57;;;;;;;8.99;52.93;100558.52;1397316;88;21223;-79
2023/02/22 09:12:09;;;;;;;17.20;3.63;;;;;;;8.87;49.77;100561.75;1402000;88;21333;-78
2023/02/22 09:14:35;;;;;;;11.03;3.47;;;;;;;8.89;51.84;100566.42;1397876;88;21365;-80
2023/02/22 09:17:02;;;;;;;13.83;3.83;;;;;;;8.89;50.90;100561.14;1398264;88;21186;-79
2023/02/22 09:19:28;;;;;;;9.33;3.33;;;;;;;8.92;51.64;100563.51;1398029;88;21200;-79
2023/02/22 09:21:56;;;;;;;13.27;4.47;;;;;;;9.05;52.11;100556.66;1404175;88;22369;-79
2023/02/22 09:24:23;;;;;;;13.23;4.40;;;;;;;9.20;52.31;100555.79;1559082;88;21171;-81
2023/02/22 09:26:53;;;;;;;8.20;3.50;;;;;;;9.32;52.11;100553.41;1398040;88;22147;-79
2023/02/22 09:29:24;;;;;;;14.37;3.33;;;;;;;9.44;49.66;100561.55;1394242;88;21386;-78
2023/02/22 09:31:54;;;;;;;9.50;2.97;;;;;;;9.34;49.20;100562.00;1552783;88;21260;-79
2023/02/22 09:34:28;;;;;;;6.43;2.50;;;;;;;9.48;49.05;100557.65;1559277;88;22200;-79
2023/02/22 09:36:50;;;;;;;9.05;2.83;;;;;;;9.45;47.70;100555.78;1554391;88;21363;-79
2023/02/22 09:39:17;;;;;;;12.60;4.07;;;;;;;9.35;47.45;100558.41;1397989;88;21408;-80
2023/02/22 09:42:09;;;;;;;11.30;3.87;;;;;;;9.63;49.22;100545.36;1404216;88;21267;-79
2023/02/22 09:44:53;;;;;;;8.77;2.93;;;;;;;9.84;47.77;100546.06;1498559;90;21579;-80
2023/02/22 09:47:31;;;;;;;9.47;3.67;;;;;;;9.96;45.69;100547.25;1427310;88;21415;-79
2023/02/22 09:50:14;;;;;;;8.80;3.50;;;;;;;10.15;46.83;100547.19;1558509;88;22024;-78
2023/02/22 09:53:20;;;;;;;19.40;7.27;;;;;;;10.46;47.25;100547.03;1401604;88;21290;-76
2023/02/22 09:55:51;;;;;;;21.07;11.43;;;;;;;10.53;47.23;100548.11;1442050;88;21444;-80
2023/02/22 09:58:26;;;;;;;13.00;6.50;;;;;;;11.30;46.90;100539.78;1558869;88;21194;-80
2023/02/22 10:01:05;;;;;;;16.30;5.70;;;;;;;12.04;46.87;100538.34;1559637;88;21194;-79
2023/02/22 10:03:56;;;;;;;7.50;3.27;;;;;;;13.16;44.25;100533.45;1556019;88;21363;-79
2023/02/22 10:06:24;;;;;;;9.77;3.73;;;;;;;13.56;40.64;100533.23;1399424;88;21486;-79
2023/02/22 10:08:55;;;;;;;13.33;4.77;;;;;;;13.90;39.86;100523.78;1397058;88;21319;-78
2023/02/22 10:11:32;;;;;;;7.93;3.53;;;;;;;14.56;41.19;100525.36;1553927;87;21491;-79
2023/02/22 10:14:32;;;;;;;11.90;5.87;;;;;;;15.15;40.57;100522.27;1558944;88;21165;-80
2023/02/22 10:17:34;;;;;;;12.37;4.78;;;;;;;14.99;39.19;100523.67;1558863;88;22074;-78
2023/02/22 10:20:27;;;;;;;13.80;5.53;;;;;;;15.14;38.09;100516.62;1394443;90;21496;-79
2023/02/22 10:23:21;;;;;;;12.17;5.93;;;;;;;15.65;39.71;100515.63;1552851;88;21274;-80
2023/02/22 10:25:53;;;;;;;14.27;5.93;;;;;;;16.15;39.51;100505.37;1558333;88;21274;-80
2023/02/22 10:28:25;;;;;;;13.22;4.67;;;;;;;16.27;39.37;100512.44;1393825;90;21282;-81
2023/02/22 10:30:56;;;;;;;12.57;4.53;;;;;;;15.32;38.07;100512.34;1558621;88;21348;-81
2023/02/22 10:33:29;;;;;;;12.53;4.40;;;;;;;14.81;40.24;100518.09;1468808;88;21562;-79
2023/02/22 10:35:55;;;;;;;17.83;4.90;;;;;;;13.65;37.71;100505.65;1394011;91;21290;-81
2023/02/22 10:38:35;;;;;;;13.10;5.27;;;;;;;13.08;39.88;100511.66;1398465;88;21290;-80
2023/02/22 10:41:12;;;;;;;14.98;5.03;;;;;;;12.70;40.91;100513.02;1397299;88;21400;-80
2023/02/22 10:43:43;;;;;;;11.63;4.70;;;;;;;12.71;42.20;100502.73;1557822;88;21339;-85
2023/02/22 10:46:14;;;;;;;9.90;5.05;;;;;;;12.54;42.40;100509.28;1399392;88;21407;-78
2023/02/22 10:48:44;;;;;;;14.00;4.40;;;;;;;12.34;41.69;100510.50;1558504;88;21282;-80
2023/02/22 10:51:10;;;;;;;15.27;4.33;;;;;;;12.51;42.44;100506.94;1395053;88;21222;-78
2023/02/22 10:53:38;;;;;;;13.43;6.10;;;;;;;11.73;41.97;100502.41;1398493;88;21238;-79
2023/02/22 10:56:19;;;;;;;12.53;5.03;;;;;;;11.84;42.48;100500.02;1396852;88;22097;-78
2023/02/22 10:58:54;;;;;;;16.27;4.53;;;;;;;11.80;43.19;100497.36;1558621;88;21179;-79
2023/02/22 11:01:28;;;;;;;13.47;6.03;;;;;;;11.77;43.35;100499.45;1558931;88;21327;-82
2023/02/22 11:04:17;;;;;;;26.20;14.27;;;;;;;11.71;43.76;100492.48;1558934;88;21330;-80
2023/02/22 11:06:47;;;;;;;22.83;10.80;;;;;;;12.01;43.84;100490.41;1506119;88;21475;-79
2023/02/22 11:09:21;;;;;;;14.38;4.30;;;;;;;12.03;43.44;100488.94;1553007;88;21363;-80
2023/02/22 11:11:50;;;;;;;15.43;6.70;;;;;;;12.13;43.96;100490.98;1424964;88;21616;-80
2023/02/22 11:14:29;;;;;;;16.97;6.47;;;;;;;12.60;44.05;100492.74;1469747;88;21348;-80
2023/02/22 11:16:58;;;;;;;15.97;6.60;;;;;;;13.26;43.65;100490.30;1476028;88;21385;-81
2023/02/22 11:19:30;;;;;;;14.20;5.33;;;;;;;13.82;42.26;100483.88;1468504;88;22451;-80
2023/02/22 11:22:13;;;;;;;11.20;5.63;;;;;;;14.41;40.86;100483.08;1475935;88;21481;-81
2023/02/22 11:24:56;;;;;;;11.80;4.93;;;;;;;14.91;39.38;100482.44;1472505;88;21444;-80
2023/02/22 11:27:40;;;;;;;11.03;4.30;;;;;;;15.43;37.60;100483.11;1469960;88;22258;-81
2023/02/22 11:30:32;;;;;;;16.87;4.45;;;;;;;15.58;37.83;100482.66;1468485;88;21859;-80
2023/02/22 11:33:06;;;;;;;12.50;5.83;;;;;;;15.50;38.48;100473.38;1467795;88;21443;-80
2023/02/22 11:35:38;;;;;;;11.15;4.10;;;;;;;15.22;37.32;100475.26;1472387;88;21392;-79
2023/02/22 11:38:21;;;;;;;12.45;5.05;;;;;;;14.85;37.66;100471.47;1478247;88;21952;-82
2023/02/22 11:41:15;;;;;;;14.67;4.80;;;;;;;15.00;39.13;100466.73;1475510;88;21488;-80
2023/02/22 11:43:44;;;;;;;14.50;4.93;;;;;;;14.54;36.81;100473.27;1472239;88;21451;-81
2023/02/22 11:46:21;;;;;;;12.93;4.37;;;;;;;14.45;39.05;100466.60;1476426;88;21420;-83
2023/02/22 11:49:03;;;;;;;17.33;5.17;;;;;;;14.27;39.24;100470.00;1469307;88;21384;-81
2023/02/22 11:52:05;;;;;;;13.87;3.97;;;;;;;14.13;39.34;100470.70;1475526;88;21348;-83
2023/02/22 11:54:46;;;;;;;10.60;3.63;;;;;;;13.62;39.51;100470.08;1474204;88;21556;-83
2023/02/22 11:57:45;;;;;;;;;;;;;;;12.91;39.24;100474.91;1479149;88;21488;-80